Wesley A — WDE2433 — position and weather

sailwx.info

Track history (hours):
 
Tides and Currents Weather Stations Pressure Air Temp Water Temp Dewpoint Dewpoint Depression Visibility Wind Speed Wind Dir Waves Ship Positions

Wesley A

Owner: G & H Towing Company, Galveston, TX. More information available from US FCC via Universal Licensing System and Coast Guard Vessel Documentation Center.

Last reported at 2018-Jul-22 12:31 UTC. Time now 2018-Jul-22 12:54 UTC.
Position N 29°22' W 094°50'.

Length 30 m; draft 6.5 m.

Type: Tug. MMSI: 367325130.

Date/timePositionNaut miles runAvg speedWind from/ knotsBaromVisibWave heightAir tempDewpointWater temp
2018-Jul-22 12:31N 29°22' W 094°50'5 9.7
2018-Jul-22 11:59N 29°21' W 094°44'2 4.4
2018-Jul-22 11:30N 29°21' W 094°47'1 2.0
2018-Jul-22 11:00N 29°20' W 094°47'1 1.6
2018-Jul-22 10:28N 29°19' W 094°47'0 0.0
2018-Jul-22 09:58N 29°19' W 094°47'0 0.0
2018-Jul-22 09:25N 29°19' W 094°47'0 0.0
2018-Jul-22 08:58N 29°19' W 094°47'0 0.0
2018-Jul-22 08:13N 29°19' W 094°47'0 0.0
2018-Jul-22 07:58N 29°19' W 094°47'0 0.0
2018-Jul-22 07:25N 29°19' W 094°47'0 0.0
2018-Jul-22 06:55N 29°19' W 094°47'0 0.0
2018-Jul-22 06:25N 29°19' W 094°47'0 0.0
2018-Jul-22 05:58N 29°19' W 094°47'0 0.0
2018-Jul-22 05:28N 29°19' W 094°47'0 0.0
2018-Jul-22 04:58N 29°19' W 094°47'0 0.0
2018-Jul-22 04:28N 29°19' W 094°47'0 0.0
2018-Jul-22 03:58N 29°19' W 094°47'0 0.0
2018-Jul-22 03:28N 29°19' W 094°47'0 0.0
2018-Jul-22 02:55N 29°19' W 094°47'0 0.0
2018-Jul-22 02:28N 29°19' W 094°47'0 0.0
2018-Jul-22 01:58N 29°19' W 094°47'0 0.0
2018-Jul-22 01:28N 29°19' W 094°47'0 0.0
2018-Jul-22 00:52N 29°19' W 094°47'0 0.0
2018-Jul-22 00:25N 29°19' W 094°47'0 0.0
2018-Jul-21 23:58N 29°19' W 094°47'0 0.0
2018-Jul-21 23:10N 29°19' W 094°47'0 0.0
2018-Jul-21 22:52N 29°19' W 094°47'0 0.0
2018-Jul-21 21:49N 29°19' W 094°47'0 0.0
2018-Jul-21 21:25N 29°19' W 094°47'1 2.9
2018-Jul-21 20:58N 29°20' W 094°46'611.0
2018-Jul-21 20:26N 29°25' W 094°50'510.6
2018-Jul-21 19:59N 29°30' W 094°52'510.3
2018-Jul-21 19:30N 29°34' W 094°55'5 9.2
2018-Jul-21 19:00N 29°37' W 094°59'2 3.2
2018-Jul-21 18:29N 29°37' W 095°01'0 0.0
2018-Jul-21 17:59N 29°37' W 095°01'0 0.0
2018-Jul-21 17:29N 29°37' W 095°01'0 0.0
2018-Jul-21 16:59N 29°37' W 095°01'0 0.0
2018-Jul-21 16:29N 29°37' W 095°01'0 0.9
2018-Jul-21 15:57N 29°37' W 095°01'0 0.0
2018-Jul-21 15:30N 29°37' W 095°01'1 2.3
2018-Jul-21 15:00N 29°37' W 094°59'1 2.2
2018-Jul-21 14:30N 29°37' W 095°01'0 0.1
2018-Jul-21 14:00N 29°37' W 095°01'0 0.9
2018-Jul-21 13:30N 29°37' W 095°01'0 0.0
2018-Jul-21 13:00N 29°37' W 095°01'1 1.9
2018-Jul-21 12:30N 29°37' W 095°00'0 0.1
2018-Jul-21 12:01N 29°37' W 094°60'0 0.1
2018-Jul-21 11:30N 29°37' W 094°60'0 0.0
2018-Jul-21 11:00N 29°37' W 094°60'0 0.0
2018-Jul-21 10:30N 29°37' W 094°60'2 3.3
2018-Jul-21 10:00N 29°37' W 094°58'2 3.3
2018-Jul-21 09:30N 29°37' W 094°60'1 2.6
2018-Jul-21 09:00N 29°37' W 095°01'0 0.8
2018-Jul-21 08:30N 29°37' W 095°01'0 0.0
2018-Jul-21 08:00N 29°37' W 095°01'0 0.0
2018-Jul-21 07:30N 29°37' W 095°01'0 0.0
2018-Jul-21 07:00N 29°37' W 095°01'0 0.0
2018-Jul-21 06:30N 29°37' W 095°01'3 6.2
2018-Jul-21 06:00N 29°38' W 094°58'3 6.6
2018-Jul-21 05:31N 29°41' W 094°59'1 1.7
2018-Jul-21 04:59N 29°41' W 095°00'0 0.1
2018-Jul-21 04:30N 29°41' W 095°00'1 2.2
2018-Jul-21 03:59N 29°41' W 094°59'3 5.2
2018-Jul-21 03:23N 29°44' W 095°01'0 0.3
2018-Jul-21 02:57N 29°44' W 095°01'1 3.0
2018-Jul-21 02:30N 29°42' W 095°01'0 0.0
2018-Jul-21 01:59N 29°42' W 095°01'0 0.0
2018-Jul-20 21:17N 29°42' W 095°01'1 0.7
2018-Jul-20 19:06N 29°44' W 095°01'1 3.9
2018-Jul-20 18:51N 29°43' W 095°01'0 0.4
2018-Jul-20 17:43N 29°42' W 095°01'2 5.6
2018-Jul-20 17:27N 29°44' W 095°01'0 0.0
2018-Jul-20 16:45N 29°44' W 095°01'2 0.5
2018-Jul-20 13:58N 29°42' W 095°01'0 0.0
2018-Jul-20 13:19N 29°42' W 095°01'0 0.9
2018-Jul-20 13:00N 29°42' W 095°01'2 3.2
2018-Jul-20 12:30N 29°41' W 094°60'0 0.1
2018-Jul-20 11:58N 29°41' W 094°60'0 0.0
2018-Jul-20 11:30N 29°41' W 094°60'0 0.0
2018-Jul-20 11:00N 29°41' W 094°60'3 6.6
2018-Jul-20 10:30N 29°38' W 094°58'3 5.5
2018-Jul-20 10:00N 29°37' W 095°01'0 0.0
2018-Jul-20 09:29N 29°37' W 095°01'1 1.3
2018-Jul-20 09:00N 29°37' W 095°01'2 3.6
2018-Jul-20 08:30N 29°37' W 094°59'3 5.7
2018-Jul-20 08:00N 29°35' W 094°56'2 3.2
2018-Jul-20 07:30N 29°37' W 094°57'5 9.3
2018-Jul-20 07:00N 29°41' W 094°59'0 0.5
2018-Jul-20 06:30N 29°41' W 094°60'0 0.0
2018-Jul-20 06:00N 29°41' W 094°60'0 0.0
2018-Jul-20 05:30N 29°41' W 094°60'0 0.0
2018-Jul-20 04:57N 29°41' W 094°60'0 0.0
2018-Jul-20 04:30N 29°41' W 094°60'0 0.0
2018-Jul-20 04:00N 29°41' W 094°60'0 0.0
2018-Jul-20 03:24N 29°41' W 094°60'0 0.0
2018-Jul-20 02:57N 29°41' W 094°60'0 0.0
2018-Jul-20 02:15N 29°41' W 094°60'0 0.0
2018-Jul-20 01:57N 29°41' W 094°60'0 0.9
2018-Jul-20 01:30N 29°41' W 094°59'1 1.1
2018-Jul-20 01:01N 29°41' W 094°60'1 1.1
2018-Jul-20 00:29N 29°41' W 094°59'4 8.2
2018-Jul-19 23:57N 29°44' W 095°03'3 2.3
2018-Jul-19 22:40N 29°45' W 095°06'1 1.9
2018-Jul-19 22:05N 29°46' W 095°05'0 0.2
2018-Jul-19 21:55N 29°46' W 095°05'0 0.0
2018-Jul-19 17:08N 29°46' W 095°05'1 4.6
2018-Jul-19 17:00N 29°45' W 095°06'0 0.1
2018-Jul-19 16:28N 29°45' W 095°06'1 2.6
2018-Jul-19 15:54N 29°45' W 095°04'1 3.5
2018-Jul-19 15:29N 29°45' W 095°06'0 0.0
2018-Jul-19 14:42N 29°45' W 095°06'0 0.0
2018-Jul-19 14:00N 29°45' W 095°06'0 0.4
2018-Jul-19 12:54N 29°45' W 095°06'1 3.3
2018-Jul-19 12:28N 29°46' W 095°05'3 7.2
2018-Jul-19 12:00N 29°44' W 095°02'3 7.0
2018-Jul-19 11:30N 29°41' W 094°59'1 1.5
2018-Jul-19 10:59N 29°41' W 094°60'0 0.0
2018-Jul-19 10:29N 29°41' W 094°60'0 0.0
2018-Jul-19 09:56N 29°41' W 094°60'0 0.0
2018-Jul-19 09:20N 29°41' W 094°60'0 0.0
2018-Jul-19 08:53N 29°41' W 094°60'0 0.0
2018-Jul-19 07:32N 29°41' W 094°60'0 0.1
2018-Jul-19 07:26N 29°41' W 094°60'0 0.0
2018-Jul-19 06:47N 29°41' W 094°60'0 0.0
2018-Jul-19 06:26N 29°41' W 094°60'0 0.0
2018-Jul-19 05:53N 29°41' W 094°60'0 0.0
2018-Jul-19 05:26N 29°41' W 094°60'0 0.0
2018-Jul-19 04:53N 29°41' W 094°60'0 0.6
2018-Jul-19 04:30N 29°41' W 094°60'0 0.4
2018-Jul-19 04:00N 29°41' W 094°59'2 4.6
2018-Jul-19 03:30N 29°39' W 094°58'2 4.5
2018-Jul-19 03:01N 29°41' W 094°59'0 0.0
2018-Jul-19 02:29N 29°41' W 094°59'0 0.0
2018-Jul-19 01:59N 29°41' W 094°59'0 0.0
2018-Jul-19 01:29N 29°41' W 094°59'0 0.0
2018-Jul-19 00:53N 29°41' W 094°59'0 0.0
2018-Jul-19 00:29N 29°41' W 094°59'0 0.0
2018-Jul-18 23:56N 29°41' W 094°59'1 2.0
2018-Jul-18 23:30N 29°41' W 095°00'1 2.2
2018-Jul-18 23:00N 29°42' W 094°60'4 5.6
2018-Jul-18 22:19N 29°44' W 095°03'3 5.3
2018-Jul-18 21:50N 29°46' W 095°05'2 0.5
2018-Jul-18 18:36N 29°45' W 095°07'3 5.0
2018-Jul-18 18:04N 29°44' W 095°03'2 7.2
2018-Jul-18 17:44N 29°43' W 095°01'2 7.5
2018-Jul-18 17:27N 29°42' W 094°59'510.1
2018-Jul-18 16:59N 29°37' W 094°57'2 2.7
2018-Jul-18 16:19N 29°37' W 094°59'1 2.8
2018-Jul-18 15:55N 29°37' W 094°58'3 6.3
2018-Jul-18 15:31N 29°37' W 095°01'1 1.3
2018-Jul-18 15:00N 29°37' W 095°00'1 1.4
2018-Jul-18 14:31N 29°37' W 095°01'4 3.6
2018-Jul-18 13:30N 29°36' W 094°57'2 3.5
2018-Jul-18 13:01N 29°35' W 094°56'4 8.3
2018-Jul-18 12:30N 29°37' W 095°00'0 0.0
2018-Jul-18 11:58N 29°37' W 095°00'0 0.1
2018-Jul-18 11:30N 29°37' W 095°00'1 1.0
2018-Jul-18 10:30N 29°37' W 095°01'1 2.5
2018-Jul-18 10:00N 29°37' W 094°60'3 6.4
2018-Jul-18 09:30N 29°36' W 094°56'2 3.3
2018-Jul-18 09:00N 29°34' W 094°55'1 1.7
2018-Jul-18 08:30N 29°35' W 094°56'3 6.1
2018-Jul-18 08:00N 29°38' W 094°58'4 7.4
2018-Jul-18 07:30N 29°41' W 094°59'1 1.8
2018-Jul-18 07:00N 29°41' W 095°00'1 2.1
2018-Jul-18 06:30N 29°42' W 094°60'1 0.4
2018-Jul-18 03:21N 29°42' W 095°01'5 8.9
2018-Jul-18 02:50N 29°39' W 094°58'2 6.2
2018-Jul-18 02:30N 29°37' W 094°59'0 0.7
2018-Jul-18 01:57N 29°37' W 094°59'1 3.2
2018-Jul-18 01:30N 29°37' W 095°01'0 0.0
2018-Jul-18 00:58N 29°37' W 095°01'0 0.0
2018-Jul-18 00:28N 29°37' W 095°01'0 0.0
2018-Jul-17 23:58N 29°37' W 095°01'0 0.0
2018-Jul-17 23:26N 29°37' W 095°01'1 2.3
2018-Jul-17 23:00N 29°37' W 094°60'0 0.1
2018-Jul-17 22:28N 29°37' W 094°60'0 0.0
2018-Jul-17 21:56N 29°37' W 094°60'4 8.3
2018-Jul-17 21:29N 29°35' W 094°56'1310.5
2018-Jul-17 20:17N 29°24' W 094°49'3 9.4
2018-Jul-17 20:00N 29°22' W 094°48'4 7.7
2018-Jul-17 19:30N 29°23' W 094°52'1 1.6
2018-Jul-17 18:43N 29°23' W 094°53'0 0.0
2018-Jul-17 18:30N 29°23' W 094°53'0 0.1
2018-Jul-17 18:00N 29°23' W 094°53'0 0.3
2018-Jul-17 17:30N 29°23' W 094°53'0 0.0
2018-Jul-17 17:00N 29°23' W 094°53'4 8.7
2018-Jul-17 16:30N 29°22' W 094°49'3 6.1
2018-Jul-17 15:56N 29°25' W 094°50'4 9.3
2018-Jul-17 15:28N 29°29' W 094°52'4 9.2
2018-Jul-17 15:00N 29°33' W 094°54'510.0
2018-Jul-17 14:30N 29°37' W 094°57'3 5.9
2018-Jul-17 13:58N 29°37' W 095°01'1 1.7
2018-Jul-17 13:31N 29°37' W 095°00'1 1.1
2018-Jul-17 12:54N 29°37' W 094°59'1 3.2
2018-Jul-17 12:30N 29°37' W 094°58'1 1.7
2018-Jul-17 12:01N 29°36' W 094°57'4 7.5
2018-Jul-17 11:30N 29°40' W 094°59'3 6.1
2018-Jul-17 11:00N 29°42' W 095°01'0 0.0
2018-Jul-17 10:30N 29°42' W 095°01'0 0.0
2018-Jul-17 10:00N 29°42' W 095°01'0 0.0
2018-Jul-17 09:30N 29°42' W 095°01'0 0.0
2018-Jul-17 08:57N 29°42' W 095°01'0 0.0
2018-Jul-17 08:30N 29°42' W 095°01'0 0.0
2018-Jul-17 08:00N 29°42' W 095°01'0 0.0
2018-Jul-17 07:27N 29°42' W 095°01'0 0.0
2018-Jul-17 06:57N 29°42' W 095°01'0 0.0
2018-Jul-17 06:27N 29°42' W 095°01'0 0.0
2018-Jul-17 05:54N 29°42' W 095°01'0 0.1
2018-Jul-17 05:30N 29°42' W 095°01'2 3.4
2018-Jul-17 05:00N 29°41' W 094°60'0 0.2
2018-Jul-17 04:29N 29°41' W 094°60'0 0.0
2018-Jul-17 03:59N 29°41' W 094°60'0 0.5
2018-Jul-17 03:30N 29°41' W 094°60'1 1.0
2018-Jul-17 03:00N 29°41' W 094°59'2 3.1
2018-Jul-17 02:30N 29°40' W 094°58'4 1.8
2018-Jul-17 00:28N 29°42' W 095°01'0 0.0
2018-Jul-16 23:25N 29°42' W 095°01'0 0.0
2018-Jul-16 22:55N 29°42' W 095°01'0 0.0
2018-Jul-16 22:28N 29°42' W 095°01'0 0.0
2018-Jul-16 21:37N 29°42' W 095°01'0 0.0
2018-Jul-16 21:30N 29°42' W 095°01'2 1.6
2018-Jul-16 20:32N 29°44' W 095°02'1 7.2
2018-Jul-16 20:24N 29°44' W 095°03'2 0.9
2018-Jul-16 18:31N 29°43' W 095°01'1 0.5
2018-Jul-16 17:17N 29°42' W 095°01'0 0.0
2018-Jul-16 16:47N 29°42' W 095°01'1 1.1
2018-Jul-16 16:18N 29°43' W 095°01'1 3.1
2018-Jul-16 15:59N 29°44' W 095°01'1 2.6
2018-Jul-16 15:26N 29°42' W 095°01'0 0.1
2018-Jul-16 14:54N 29°42' W 095°01'0 0.0
2018-Jul-16 14:21N 29°42' W 095°01'0 0.0
2018-Jul-16 14:00N 29°42' W 095°01'0 0.0
2018-Jul-16 13:12N 29°42' W 095°01'0 0.0
2018-Jul-16 12:57N 29°42' W 095°01'0 0.0
2018-Jul-16 12:21N 29°42' W 095°01'0 0.0
2018-Jul-16 12:00N 29°42' W 095°01'2 3.4
2018-Jul-16 11:30N 29°42' W 094°59'1 1.3
2018-Jul-16 11:00N 29°41' W 094°60'1 1.1
2018-Jul-16 10:30N 29°41' W 094°59'2 3.1
2018-Jul-16 10:01N 29°40' W 094°58'2 3.5
2018-Jul-16 09:30N 29°41' W 094°59'2 3.4
2018-Jul-16 08:56N 29°42' W 095°01'0 0.0
2018-Jul-16 08:26N 29°42' W 095°01'0 0.0
2018-Jul-16 07:56N 29°42' W 095°01'0 0.0
2018-Jul-16 02:47N 29°42' W 095°01'0 0.0
2018-Jul-16 02:29N 29°42' W 095°01'0 0.0
2018-Jul-16 01:50N 29°42' W 095°01'0 0.0
2018-Jul-16 01:08N 29°42' W 095°01'0 0.0
2018-Jul-16 00:56N 29°42' W 095°01'0 0.0
2018-Jul-16 00:23N 29°42' W 095°01'0 0.0
2018-Jul-15 23:47N 29°42' W 095°01'0 0.0
2018-Jul-15 22:41N 29°42' W 095°01'0 0.0
2018-Jul-15 22:29N 29°42' W 095°01'0 0.0
2018-Jul-15 20:26N 29°42' W 095°01'0 0.0
2018-Jul-15 16:49N 29°42' W 095°01'2 4.0
2018-Jul-15 16:25N 29°44' W 095°02'1 1.4
2018-Jul-15 15:31N 29°44' W 095°03'0 3.2
2018-Jul-15 15:30N 29°44' W 095°03'3 4.9
2018-Jul-15 14:50N 29°42' W 095°00'1 1.4
2018-Jul-15 14:02N 29°41' W 094°59'0 0.1
2018-Jul-15 13:57N 29°41' W 094°59'0 0.0
2018-Jul-15 13:24N 29°41' W 094°59'0 0.0
2018-Jul-15 13:00N 29°41' W 094°59'0 0.0
2018-Jul-15 12:21N 29°41' W 094°59'0 0.0
2018-Jul-15 12:00N 29°41' W 094°59'0 0.0
2018-Jul-15 11:30N 29°41' W 094°59'0 0.0
2018-Jul-15 11:00N 29°41' W 094°59'0 0.0
2018-Jul-15 10:30N 29°41' W 094°59'0 0.6
2018-Jul-15 10:00N 29°41' W 094°60'1 1.8
2018-Jul-15 09:30N 29°42' W 094°60'5 8.6
2018-Jul-15 08:59N 29°45' W 095°04'3 0.5
2018-Jul-15 02:17N 29°44' W 095°08'0 0.1
2018-Jul-14 23:55N 29°44' W 095°08'0 0.0
2018-Jul-14 23:30N 29°44' W 095°08'1 1.7
2018-Jul-14 23:00N 29°44' W 095°07'5 5.2
2018-Jul-14 22:03N 29°43' W 095°01'0 6.0
2018-Jul-14 22:00N 29°43' W 095°01'0 0.2
2018-Jul-14 19:35N 29°42' W 095°01'0 0.0
2018-Jul-14 19:10N 29°42' W 095°01'1 7.4
2018-Jul-14 19:01N 29°43' W 095°01'1 1.4
2018-Jul-14 18:30N 29°43' W 095°01'5 7.6
2018-Jul-14 17:53N 29°39' W 094°58'2 5.4
2018-Jul-14 17:30N 29°37' W 094°58'2 4.2
2018-Jul-14 17:00N 29°37' W 095°00'0 0.6
2018-Jul-14 16:28N 29°37' W 095°00'0 0.0
2018-Jul-14 15:58N 29°37' W 095°00'0 0.0
2018-Jul-14 15:28N 29°37' W 095°00'0 0.6
2018-Jul-14 15:00N 29°37' W 095°00'1 1.1
2018-Jul-14 14:00N 29°37' W 094°59'3 6.8
2018-Jul-14 13:30N 29°35' W 094°56'611.2
2018-Jul-14 13:00N 29°40' W 094°58'2 2.8
2018-Jul-14 12:28N 29°41' W 094°60'1 1.1
2018-Jul-14 12:00N 29°41' W 094°59'1 1.1
2018-Jul-14 11:30N 29°41' W 094°60'0 0.3
2018-Jul-14 10:59N 29°41' W 094°60'0 0.0
2018-Jul-14 10:29N 29°41' W 094°60'0 0.0
2018-Jul-14 09:59N 29°41' W 094°60'0 0.0
2018-Jul-14 09:29N 29°41' W 094°60'0 0.0
2018-Jul-14 08:59N 29°41' W 094°60'0 0.0
2018-Jul-14 08:29N 29°41' W 094°60'0 0.0
2018-Jul-14 08:00N 29°41' W 094°60'1 1.3
2018-Jul-14 07:28N 29°41' W 095°01'0 0.6
2018-Jul-14 07:00N 29°41' W 095°00'3 4.5
2018-Jul-14 06:25N 29°39' W 094°58'2 5.8
2018-Jul-14 06:00N 29°41' W 094°60'0 0.0
2018-Jul-14 05:21N 29°41' W 094°60'0 0.0
2018-Jul-14 04:54N 29°41' W 094°60'0 0.0
2018-Jul-14 04:27N 29°41' W 094°60'0 0.0
2018-Jul-14 03:54N 29°41' W 094°60'0 0.0
2018-Jul-14 03:21N 29°41' W 094°60'0 0.0
2018-Jul-14 02:57N 29°41' W 094°60'1 1.4
2018-Jul-14 02:29N 29°41' W 094°59'1 1.2
2018-Jul-14 02:00N 29°41' W 094°60'1 1.7
2018-Jul-14 01:30N 29°42' W 094°60'2 2.0
2018-Jul-14 00:19N 29°44' W 095°01'1 0.6
2018-Jul-13 21:41N 29°42' W 095°01'0 0.0
2018-Jul-13 21:17N 29°42' W 095°01'0 0.0
2018-Jul-13 20:53N 29°42' W 095°01'0 0.0
2018-Jul-13 20:23N 29°42' W 095°01'0 0.0
2018-Jul-13 15:59N 29°42' W 095°01'0 0.0
2018-Jul-13 12:32N 29°42' W 095°01'0 0.0
2018-Jul-13 12:20N 29°42' W 095°01'0 0.0
2018-Jul-13 10:38N 29°42' W 095°01'0 0.0
2018-Jul-13 10:20N 29°42' W 095°01'0 0.0
2018-Jul-13 09:59N 29°42' W 095°01'0 0.0
2018-Jul-13 09:17N 29°42' W 095°01'0 0.0
2018-Jul-13 08:56N 29°42' W 095°01'0 0.0
2018-Jul-13 08:29N 29°42' W 095°01'0 0.0
2018-Jul-13 07:38N 29°42' W 095°01'0 0.0
2018-Jul-13 06:17N 29°42' W 095°01'0 1.1
2018-Jul-13 05:58N 29°43' W 095°01'0 0.1
2018-Jul-13 02:38N 29°42' W 095°01'1 0.7
2018-Jul-13 01:17N 29°43' W 095°01'1 4.6
2018-Jul-13 01:00N 29°42' W 095°00'1 2.8
2018-Jul-13 00:30N 29°41' W 094°59'1 2.2
2018-Jul-13 00:00N 29°41' W 095°00'0 0.1
2018-Jul-12 23:22N 29°41' W 095°00'1 2.0
2018-Jul-12 22:56N 29°41' W 094°59'0 0.0
2018-Jul-12 22:29N 29°41' W 094°59'0 0.0
2018-Jul-12 21:59N 29°41' W 094°59'0 0.0
2018-Jul-12 21:29N 29°41' W 094°59'0 0.0
2018-Jul-12 20:59N 29°41' W 094°59'0 0.0
2018-Jul-12 20:30N 29°41' W 094°59'4 5.9
2018-Jul-12 19:50N 29°44' W 095°02'2 6.3
2018-Jul-12 19:30N 29°45' W 095°04'3 4.1
2018-Jul-12 18:44N 29°44' W 095°07'  
Track history (hours):
 
Tides and Currents Weather Stations Pressure Air Temp Water Temp Dewpoint Dewpoint Depression Visibility Wind Speed Wind Dir Waves Ship Positions

Wesley A

Owner: G & H Towing Company, Galveston, TX. More information available from US FCC via Universal Licensing System and Coast Guard Vessel Documentation Center.

Last reported at 2018-Jul-22 12:31 UTC. Time now 2018-Jul-22 12:54 UTC.
Position N 29°22' W 094°50'.

Length 30 m; draft 6.5 m.

Type: Tug. MMSI: 367325130.

Date/timePositionNaut miles runAvg speedWind from/ knotsBaromVisibWave heightAir tempDewpointWater temp
2018-Jul-22 12:31N 29°22' W 094°50'5 9.7
2018-Jul-22 11:59N 29°21' W 094°44'2 4.4
2018-Jul-22 11:30N 29°21' W 094°47'1 2.0
2018-Jul-22 11:00N 29°20' W 094°47'1 1.6
2018-Jul-22 10:28N 29°19' W 094°47'0 0.0
2018-Jul-22 09:58N 29°19' W 094°47'0 0.0
2018-Jul-22 09:25N 29°19' W 094°47'0 0.0
2018-Jul-22 08:58N 29°19' W 094°47'0 0.0
2018-Jul-22 08:13N 29°19' W 094°47'0 0.0
2018-Jul-22 07:58N 29°19' W 094°47'0 0.0
2018-Jul-22 07:25N 29°19' W 094°47'0 0.0
2018-Jul-22 06:55N 29°19' W 094°47'0 0.0
2018-Jul-22 06:25N 29°19' W 094°47'0 0.0
2018-Jul-22 05:58N 29°19' W 094°47'0 0.0
2018-Jul-22 05:28N 29°19' W 094°47'0 0.0
2018-Jul-22 04:58N 29°19' W 094°47'0 0.0
2018-Jul-22 04:28N 29°19' W 094°47'0 0.0
2018-Jul-22 03:58N 29°19' W 094°47'0 0.0
2018-Jul-22 03:28N 29°19' W 094°47'0 0.0
2018-Jul-22 02:55N 29°19' W 094°47'0 0.0
2018-Jul-22 02:28N 29°19' W 094°47'0 0.0
2018-Jul-22 01:58N 29°19' W 094°47'0 0.0
2018-Jul-22 01:28N 29°19' W 094°47'0 0.0
2018-Jul-22 00:52N 29°19' W 094°47'0 0.0
2018-Jul-22 00:25N 29°19' W 094°47'0 0.0
2018-Jul-21 23:58N 29°19' W 094°47'0 0.0
2018-Jul-21 23:10N 29°19' W 094°47'0 0.0
2018-Jul-21 22:52N 29°19' W 094°47'0 0.0
2018-Jul-21 21:49N 29°19' W 094°47'0 0.0
2018-Jul-21 21:25N 29°19' W 094°47'1 2.9
2018-Jul-21 20:58N 29°20' W 094°46'611.0
2018-Jul-21 20:26N 29°25' W 094°50'510.6
2018-Jul-21 19:59N 29°30' W 094°52'510.3
2018-Jul-21 19:30N 29°34' W 094°55'5 9.2
2018-Jul-21 19:00N 29°37' W 094°59'2 3.2
2018-Jul-21 18:29N 29°37' W 095°01'0 0.0
2018-Jul-21 17:59N 29°37' W 095°01'0 0.0
2018-Jul-21 17:29N 29°37' W 095°01'0 0.0
2018-Jul-21 16:59N 29°37' W 095°01'0 0.0
2018-Jul-21 16:29N 29°37' W 095°01'0 0.9
2018-Jul-21 15:57N 29°37' W 095°01'0 0.0
2018-Jul-21 15:30N 29°37' W 095°01'1 2.3
2018-Jul-21 15:00N 29°37' W 094°59'1 2.2
2018-Jul-21 14:30N 29°37' W 095°01'0 0.1
2018-Jul-21 14:00N 29°37' W 095°01'0 0.9
2018-Jul-21 13:30N 29°37' W 095°01'0 0.0
2018-Jul-21 13:00N 29°37' W 095°01'1 1.9
2018-Jul-21 12:30N 29°37' W 095°00'0 0.1
2018-Jul-21 12:01N 29°37' W 094°60'0 0.1
2018-Jul-21 11:30N 29°37' W 094°60'0 0.0
2018-Jul-21 11:00N 29°37' W 094°60'0 0.0
2018-Jul-21 10:30N 29°37' W 094°60'2 3.3
2018-Jul-21 10:00N 29°37' W 094°58'2 3.3
2018-Jul-21 09:30N 29°37' W 094°60'1 2.6
2018-Jul-21 09:00N 29°37' W 095°01'0 0.8
2018-Jul-21 08:30N 29°37' W 095°01'0 0.0
2018-Jul-21 08:00N 29°37' W 095°01'0 0.0
2018-Jul-21 07:30N 29°37' W 095°01'0 0.0
2018-Jul-21 07:00N 29°37' W 095°01'0 0.0
2018-Jul-21 06:30N 29°37' W 095°01'3 6.2
2018-Jul-21 06:00N 29°38' W 094°58'3 6.6
2018-Jul-21 05:31N 29°41' W 094°59'1 1.7
2018-Jul-21 04:59N 29°41' W 095°00'0 0.1
2018-Jul-21 04:30N 29°41' W 095°00'1 2.2
2018-Jul-21 03:59N 29°41' W 094°59'3 5.2
2018-Jul-21 03:23N 29°44' W 095°01'0 0.3
2018-Jul-21 02:57N 29°44' W 095°01'1 3.0
2018-Jul-21 02:30N 29°42' W 095°01'0 0.0
2018-Jul-21 01:59N 29°42' W 095°01'0 0.0
2018-Jul-20 21:17N 29°42' W 095°01'1 0.7
2018-Jul-20 19:06N 29°44' W 095°01'1 3.9
2018-Jul-20 18:51N 29°43' W 095°01'0 0.4
2018-Jul-20 17:43N 29°42' W 095°01'2 5.6
2018-Jul-20 17:27N 29°44' W 095°01'0 0.0
2018-Jul-20 16:45N 29°44' W 095°01'2 0.5
2018-Jul-20 13:58N 29°42' W 095°01'0 0.0
2018-Jul-20 13:19N 29°42' W 095°01'0 0.9
2018-Jul-20 13:00N 29°42' W 095°01'2 3.2
2018-Jul-20 12:30N 29°41' W 094°60'0 0.1
2018-Jul-20 11:58N 29°41' W 094°60'0 0.0
2018-Jul-20 11:30N 29°41' W 094°60'0 0.0
2018-Jul-20 11:00N 29°41' W 094°60'3 6.6
2018-Jul-20 10:30N 29°38' W 094°58'3 5.5
2018-Jul-20 10:00N 29°37' W 095°01'0 0.0
2018-Jul-20 09:29N 29°37' W 095°01'1 1.3
2018-Jul-20 09:00N 29°37' W 095°01'2 3.6
2018-Jul-20 08:30N 29°37' W 094°59'3 5.7
2018-Jul-20 08:00N 29°35' W 094°56'2 3.2
2018-Jul-20 07:30N 29°37' W 094°57'5 9.3
2018-Jul-20 07:00N 29°41' W 094°59'0 0.5
2018-Jul-20 06:30N 29°41' W 094°60'0 0.0
2018-Jul-20 06:00N 29°41' W 094°60'0 0.0
2018-Jul-20 05:30N 29°41' W 094°60'0 0.0
2018-Jul-20 04:57N 29°41' W 094°60'0 0.0
2018-Jul-20 04:30N 29°41' W 094°60'0 0.0
2018-Jul-20 04:00N 29°41' W 094°60'0 0.0
2018-Jul-20 03:24N 29°41' W 094°60'0 0.0
2018-Jul-20 02:57N 29°41' W 094°60'0 0.0
2018-Jul-20 02:15N 29°41' W 094°60'0 0.0
2018-Jul-20 01:57N 29°41' W 094°60'0 0.9
2018-Jul-20 01:30N 29°41' W 094°59'1 1.1
2018-Jul-20 01:01N 29°41' W 094°60'1 1.1
2018-Jul-20 00:29N 29°41' W 094°59'4 8.2
2018-Jul-19 23:57N 29°44' W 095°03'3 2.3
2018-Jul-19 22:40N 29°45' W 095°06'1 1.9
2018-Jul-19 22:05N 29°46' W 095°05'0 0.2
2018-Jul-19 21:55N 29°46' W 095°05'0 0.0
2018-Jul-19 17:08N 29°46' W 095°05'1 4.6
2018-Jul-19 17:00N 29°45' W 095°06'0 0.1
2018-Jul-19 16:28N 29°45' W 095°06'1 2.6
2018-Jul-19 15:54N 29°45' W 095°04'1 3.5
2018-Jul-19 15:29N 29°45' W 095°06'0 0.0
2018-Jul-19 14:42N 29°45' W 095°06'0 0.0
2018-Jul-19 14:00N 29°45' W 095°06'0 0.4
2018-Jul-19 12:54N 29°45' W 095°06'1 3.3
2018-Jul-19 12:28N 29°46' W 095°05'3 7.2
2018-Jul-19 12:00N 29°44' W 095°02'3 7.0
2018-Jul-19 11:30N 29°41' W 094°59'1 1.5
2018-Jul-19 10:59N 29°41' W 094°60'0 0.0
2018-Jul-19 10:29N 29°41' W 094°60'0 0.0
2018-Jul-19 09:56N 29°41' W 094°60'0 0.0
2018-Jul-19 09:20N 29°41' W 094°60'0 0.0
2018-Jul-19 08:53N 29°41' W 094°60'0 0.0
2018-Jul-19 07:32N 29°41' W 094°60'0 0.1
2018-Jul-19 07:26N 29°41' W 094°60'0 0.0
2018-Jul-19 06:47N 29°41' W 094°60'0 0.0
2018-Jul-19 06:26N 29°41' W 094°60'0 0.0
2018-Jul-19 05:53N 29°41' W 094°60'0 0.0
2018-Jul-19 05:26N 29°41' W 094°60'0 0.0
2018-Jul-19 04:53N 29°41' W 094°60'0 0.6
2018-Jul-19 04:30N 29°41' W 094°60'0 0.4
2018-Jul-19 04:00N 29°41' W 094°59'2 4.6
2018-Jul-19 03:30N 29°39' W 094°58'2 4.5
2018-Jul-19 03:01N 29°41' W 094°59'0 0.0
2018-Jul-19 02:29N 29°41' W 094°59'0 0.0
2018-Jul-19 01:59N 29°41' W 094°59'0 0.0
2018-Jul-19 01:29N 29°41' W 094°59'0 0.0
2018-Jul-19 00:53N 29°41' W 094°59'0 0.0
2018-Jul-19 00:29N 29°41' W 094°59'0 0.0
2018-Jul-18 23:56N 29°41' W 094°59'1 2.0
2018-Jul-18 23:30N 29°41' W 095°00'1 2.2
2018-Jul-18 23:00N 29°42' W 094°60'4 5.6
2018-Jul-18 22:19N 29°44' W 095°03'3 5.3
2018-Jul-18 21:50N 29°46' W 095°05'2 0.5
2018-Jul-18 18:36N 29°45' W 095°07'3 5.0
2018-Jul-18 18:04N 29°44' W 095°03'2 7.2
2018-Jul-18 17:44N 29°43' W 095°01'2 7.5
2018-Jul-18 17:27N 29°42' W 094°59'510.1
2018-Jul-18 16:59N 29°37' W 094°57'2 2.7
2018-Jul-18 16:19N 29°37' W 094°59'1 2.8
2018-Jul-18 15:55N 29°37' W 094°58'3 6.3
2018-Jul-18 15:31N 29°37' W 095°01'1 1.3
2018-Jul-18 15:00N 29°37' W 095°00'1 1.4
2018-Jul-18 14:31N 29°37' W 095°01'4 3.6
2018-Jul-18 13:30N 29°36' W 094°57'2 3.5
2018-Jul-18 13:01N 29°35' W 094°56'4 8.3
2018-Jul-18 12:30N 29°37' W 095°00'0 0.0
2018-Jul-18 11:58N 29°37' W 095°00'0 0.1
2018-Jul-18 11:30N 29°37' W 095°00'1 1.0
2018-Jul-18 10:30N 29°37' W 095°01'1 2.5
2018-Jul-18 10:00N 29°37' W 094°60'3 6.4
2018-Jul-18 09:30N 29°36' W 094°56'2 3.3
2018-Jul-18 09:00N 29°34' W 094°55'1 1.7
2018-Jul-18 08:30N 29°35' W 094°56'3 6.1
2018-Jul-18 08:00N 29°38' W 094°58'4 7.4
2018-Jul-18 07:30N 29°41' W 094°59'1 1.8
2018-Jul-18 07:00N 29°41' W 095°00'1 2.1
2018-Jul-18 06:30N 29°42' W 094°60'1 0.4
2018-Jul-18 03:21N 29°42' W 095°01'5 8.9
2018-Jul-18 02:50N 29°39' W 094°58'2 6.2
2018-Jul-18 02:30N 29°37' W 094°59'0 0.7
2018-Jul-18 01:57N 29°37' W 094°59'1 3.2
2018-Jul-18 01:30N 29°37' W 095°01'0 0.0
2018-Jul-18 00:58N 29°37' W 095°01'0 0.0
2018-Jul-18 00:28N 29°37' W 095°01'0 0.0
2018-Jul-17 23:58N 29°37' W 095°01'0 0.0
2018-Jul-17 23:26N 29°37' W 095°01'1 2.3
2018-Jul-17 23:00N 29°37' W 094°60'0 0.1
2018-Jul-17 22:28N 29°37' W 094°60'0 0.0
2018-Jul-17 21:56N 29°37' W 094°60'4 8.3
2018-Jul-17 21:29N 29°35' W 094°56'1310.5
2018-Jul-17 20:17N 29°24' W 094°49'3 9.4
2018-Jul-17 20:00N 29°22' W 094°48'4 7.7
2018-Jul-17 19:30N 29°23' W 094°52'1 1.6
2018-Jul-17 18:43N 29°23' W 094°53'0 0.0
2018-Jul-17 18:30N 29°23' W 094°53'0 0.1
2018-Jul-17 18:00N 29°23' W 094°53'0 0.3
2018-Jul-17 17:30N 29°23' W 094°53'0 0.0
2018-Jul-17 17:00N 29°23' W 094°53'4 8.7
2018-Jul-17 16:30N 29°22' W 094°49'3 6.1
2018-Jul-17 15:56N 29°25' W 094°50'4 9.3
2018-Jul-17 15:28N 29°29' W 094°52'4 9.2
2018-Jul-17 15:00N 29°33' W 094°54'510.0
2018-Jul-17 14:30N 29°37' W 094°57'3 5.9
2018-Jul-17 13:58N 29°37' W 095°01'1 1.7
2018-Jul-17 13:31N 29°37' W 095°00'1 1.1
2018-Jul-17 12:54N 29°37' W 094°59'1 3.2
2018-Jul-17 12:30N 29°37' W 094°58'1 1.7
2018-Jul-17 12:01N 29°36' W 094°57'4 7.5
2018-Jul-17 11:30N 29°40' W 094°59'3 6.1
2018-Jul-17 11:00N 29°42' W 095°01'0 0.0
2018-Jul-17 10:30N 29°42' W 095°01'0 0.0
2018-Jul-17 10:00N 29°42' W 095°01'0 0.0
2018-Jul-17 09:30N 29°42' W 095°01'0 0.0
2018-Jul-17 08:57N 29°42' W 095°01'0 0.0
2018-Jul-17 08:30N 29°42' W 095°01'0 0.0
2018-Jul-17 08:00N 29°42' W 095°01'0 0.0
2018-Jul-17 07:27N 29°42' W 095°01'0 0.0
2018-Jul-17 06:57N 29°42' W 095°01'0 0.0
2018-Jul-17 06:27N 29°42' W 095°01'0 0.0
2018-Jul-17 05:54N 29°42' W 095°01'0 0.1
2018-Jul-17 05:30N 29°42' W 095°01'2 3.4
2018-Jul-17 05:00N 29°41' W 094°60'0 0.2
2018-Jul-17 04:29N 29°41' W 094°60'0 0.0
2018-Jul-17 03:59N 29°41' W 094°60'0 0.5
2018-Jul-17 03:30N 29°41' W 094°60'1 1.0
2018-Jul-17 03:00N 29°41' W 094°59'2 3.1
2018-Jul-17 02:30N 29°40' W 094°58'4 1.8
2018-Jul-17 00:28N 29°42' W 095°01'0 0.0
2018-Jul-16 23:25N 29°42' W 095°01'0 0.0
2018-Jul-16 22:55N 29°42' W 095°01'0 0.0
2018-Jul-16 22:28N 29°42' W 095°01'0 0.0
2018-Jul-16 21:37N 29°42' W 095°01'0 0.0
2018-Jul-16 21:30N 29°42' W 095°01'2 1.6
2018-Jul-16 20:32N 29°44' W 095°02'1 7.2
2018-Jul-16 20:24N 29°44' W 095°03'2 0.9
2018-Jul-16 18:31N 29°43' W 095°01'1 0.5
2018-Jul-16 17:17N 29°42' W 095°01'0 0.0
2018-Jul-16 16:47N 29°42' W 095°01'1 1.1
2018-Jul-16 16:18N 29°43' W 095°01'1 3.1
2018-Jul-16 15:59N 29°44' W 095°01'1 2.6
2018-Jul-16 15:26N 29°42' W 095°01'0 0.1
2018-Jul-16 14:54N 29°42' W 095°01'0 0.0
2018-Jul-16 14:21N 29°42' W 095°01'0 0.0
2018-Jul-16 14:00N 29°42' W 095°01'0 0.0
2018-Jul-16 13:12N 29°42' W 095°01'0 0.0
2018-Jul-16 12:57N 29°42' W 095°01'0 0.0
2018-Jul-16 12:21N 29°42' W 095°01'0 0.0
2018-Jul-16 12:00N 29°42' W 095°01'2 3.4
2018-Jul-16 11:30N 29°42' W 094°59'1 1.3
2018-Jul-16 11:00N 29°41' W 094°60'1 1.1
2018-Jul-16 10:30N 29°41' W 094°59'2 3.1
2018-Jul-16 10:01N 29°40' W 094°58'2 3.5
2018-Jul-16 09:30N 29°41' W 094°59'2 3.4
2018-Jul-16 08:56N 29°42' W 095°01'0 0.0
2018-Jul-16 08:26N 29°42' W 095°01'0 0.0
2018-Jul-16 07:56N 29°42' W 095°01'0 0.0
2018-Jul-16 02:47N 29°42' W 095°01'0 0.0
2018-Jul-16 02:29N 29°42' W 095°01'0 0.0
2018-Jul-16 01:50N 29°42' W 095°01'0 0.0
2018-Jul-16 01:08N 29°42' W 095°01'0 0.0
2018-Jul-16 00:56N 29°42' W 095°01'0 0.0
2018-Jul-16 00:23N 29°42' W 095°01'0 0.0
2018-Jul-15 23:47N 29°42' W 095°01'0 0.0
2018-Jul-15 22:41N 29°42' W 095°01'0 0.0
2018-Jul-15 22:29N 29°42' W 095°01'0 0.0
2018-Jul-15 20:26N 29°42' W 095°01'0 0.0
2018-Jul-15 16:49N 29°42' W 095°01'2 4.0
2018-Jul-15 16:25N 29°44' W 095°02'1 1.4
2018-Jul-15 15:31N 29°44' W 095°03'0 3.2
2018-Jul-15 15:30N 29°44' W 095°03'3 4.9
2018-Jul-15 14:50N 29°42' W 095°00'1 1.4
2018-Jul-15 14:02N 29°41' W 094°59'0 0.1
2018-Jul-15 13:57N 29°41' W 094°59'0 0.0
2018-Jul-15 13:24N 29°41' W 094°59'0 0.0
2018-Jul-15 13:00N 29°41' W 094°59'0 0.0
2018-Jul-15 12:21N 29°41' W 094°59'0 0.0
2018-Jul-15 12:00N 29°41' W 094°59'0 0.0
2018-Jul-15 11:30N 29°41' W 094°59'0 0.0
2018-Jul-15 11:00N 29°41' W 094°59'0 0.0
2018-Jul-15 10:30N 29°41' W 094°59'0 0.6
2018-Jul-15 10:00N 29°41' W 094°60'1 1.8
2018-Jul-15 09:30N 29°42' W 094°60'5 8.6
2018-Jul-15 08:59N 29°45' W 095°04'3 0.5
2018-Jul-15 02:17N 29°44' W 095°08'0 0.1
2018-Jul-14 23:55N 29°44' W 095°08'0 0.0
2018-Jul-14 23:30N 29°44' W 095°08'1 1.7
2018-Jul-14 23:00N 29°44' W 095°07'5 5.2
2018-Jul-14 22:03N 29°43' W 095°01'0 6.0
2018-Jul-14 22:00N 29°43' W 095°01'0 0.2
2018-Jul-14 19:35N 29°42' W 095°01'0 0.0
2018-Jul-14 19:10N 29°42' W 095°01'1 7.4
2018-Jul-14 19:01N 29°43' W 095°01'1 1.4
2018-Jul-14 18:30N 29°43' W 095°01'5 7.6
2018-Jul-14 17:53N 29°39' W 094°58'2 5.4
2018-Jul-14 17:30N 29°37' W 094°58'2 4.2
2018-Jul-14 17:00N 29°37' W 095°00'0 0.6
2018-Jul-14 16:28N 29°37' W 095°00'0 0.0
2018-Jul-14 15:58N 29°37' W 095°00'0 0.0
2018-Jul-14 15:28N 29°37' W 095°00'0 0.6
2018-Jul-14 15:00N 29°37' W 095°00'1 1.1
2018-Jul-14 14:00N 29°37' W 094°59'3 6.8
2018-Jul-14 13:30N 29°35' W 094°56'611.2
2018-Jul-14 13:00N 29°40' W 094°58'2 2.8
2018-Jul-14 12:28N 29°41' W 094°60'1 1.1
2018-Jul-14 12:00N 29°41' W 094°59'1 1.1
2018-Jul-14 11:30N 29°41' W 094°60'0 0.3
2018-Jul-14 10:59N 29°41' W 094°60'0 0.0
2018-Jul-14 10:29N 29°41' W 094°60'0 0.0
2018-Jul-14 09:59N 29°41' W 094°60'0 0.0
2018-Jul-14 09:29N 29°41' W 094°60'0 0.0
2018-Jul-14 08:59N 29°41' W 094°60'0 0.0
2018-Jul-14 08:29N 29°41' W 094°60'0 0.0
2018-Jul-14 08:00N 29°41' W 094°60'1 1.3
2018-Jul-14 07:28N 29°41' W 095°01'0 0.6
2018-Jul-14 07:00N 29°41' W 095°00'3 4.5
2018-Jul-14 06:25N 29°39' W 094°58'2 5.8
2018-Jul-14 06:00N 29°41' W 094°60'0 0.0
2018-Jul-14 05:21N 29°41' W 094°60'0 0.0
2018-Jul-14 04:54N 29°41' W 094°60'0 0.0
2018-Jul-14 04:27N 29°41' W 094°60'0 0.0
2018-Jul-14 03:54N 29°41' W 094°60'0 0.0
2018-Jul-14 03:21N 29°41' W 094°60'0 0.0
2018-Jul-14 02:57N 29°41' W 094°60'1 1.4
2018-Jul-14 02:29N 29°41' W 094°59'1 1.2
2018-Jul-14 02:00N 29°41' W 094°60'1 1.7
2018-Jul-14 01:30N 29°42' W 094°60'2 2.0
2018-Jul-14 00:19N 29°44' W 095°01'1 0.6
2018-Jul-13 21:41N 29°42' W 095°01'0 0.0
2018-Jul-13 21:17N 29°42' W 095°01'0 0.0
2018-Jul-13 20:53N 29°42' W 095°01'0 0.0
2018-Jul-13 20:23N 29°42' W 095°01'0 0.0
2018-Jul-13 15:59N 29°42' W 095°01'0 0.0
2018-Jul-13 12:32N 29°42' W 095°01'0 0.0
2018-Jul-13 12:20N 29°42' W 095°01'0 0.0
2018-Jul-13 10:38N 29°42' W 095°01'0 0.0
2018-Jul-13 10:20N 29°42' W 095°01'0 0.0
2018-Jul-13 09:59N 29°42' W 095°01'0 0.0
2018-Jul-13 09:17N 29°42' W 095°01'0 0.0
2018-Jul-13 08:56N 29°42' W 095°01'0 0.0
2018-Jul-13 08:29N 29°42' W 095°01'0 0.0
2018-Jul-13 07:38N 29°42' W 095°01'0 0.0
2018-Jul-13 06:17N 29°42' W 095°01'0 1.1
2018-Jul-13 05:58N 29°43' W 095°01'0 0.1
2018-Jul-13 02:38N 29°42' W 095°01'1 0.7
2018-Jul-13 01:17N 29°43' W 095°01'1 4.6
2018-Jul-13 01:00N 29°42' W 095°00'1 2.8
2018-Jul-13 00:30N 29°41' W 094°59'1 2.2
2018-Jul-13 00:00N 29°41' W 095°00'0 0.1
2018-Jul-12 23:22N 29°41' W 095°00'1 2.0
2018-Jul-12 22:56N 29°41' W 094°59'0 0.0
2018-Jul-12 22:29N 29°41' W 094°59'0 0.0
2018-Jul-12 21:59N 29°41' W 094°59'0 0.0
2018-Jul-12 21:29N 29°41' W 094°59'0 0.0
2018-Jul-12 20:59N 29°41' W 094°59'0 0.0
2018-Jul-12 20:30N 29°41' W 094°59'4 5.9
2018-Jul-12 19:50N 29°44' W 095°02'2 6.3
2018-Jul-12 19:30N 29°45' W 095°04'3 4.1
2018-Jul-12 18:44N 29°44' W 095°07'  

Dump ship's entire track history